createdAt,value
2017-08-03T00:00:55.448Z,37.30
2017-08-03T00:03:23.516Z,37.30
2017-08-03T00:05:51.689Z,37.30
2017-08-03T00:08:19.760Z,37.30
2017-08-03T00:10:47.790Z,37.20
2017-08-03T00:13:15.985Z,37.30
2017-08-03T00:15:44.023Z,37.30
2017-08-03T00:18:12.077Z,37.40
2017-08-03T00:20:40.426Z,37.30
2017-08-03T00:23:09.222Z,37.30
2017-08-03T00:25:37.297Z,37.30
2017-08-03T00:28:05.444Z,37.30
2017-08-03T00:30:33.516Z,37.40
2017-08-03T00:33:01.538Z,37.30
2017-08-03T00:35:29.707Z,37.30
2017-08-03T00:37:57.796Z,37.30
2017-08-03T00:40:25.806Z,37.30
2017-08-03T00:42:54.072Z,37.20
2017-08-03T00:45:22.122Z,37.30
2017-08-03T00:47:50.193Z,37.30
2017-08-03T00:50:18.370Z,37.30
2017-08-03T00:52:46.456Z,37.30
2017-08-03T00:55:14.530Z,37.20
2017-08-03T00:57:42.705Z,37.20
2017-08-03T01:00:10.922Z,37.20
2017-08-03T01:02:38.959Z,37.10
2017-08-03T01:05:07.128Z,37.00
2017-08-03T01:07:35.186Z,37.00
2017-08-03T01:10:03.235Z,37.00
2017-08-03T01:12:31.438Z,37.10
2017-08-03T01:14:59.520Z,37.10
2017-08-03T01:17:27.625Z,37.10
2017-08-03T01:19:55.796Z,37.10
2017-08-03T01:22:23.943Z,37.00
2017-08-03T01:24:52.019Z,37.00
2017-08-03T01:27:20.184Z,37.00
2017-08-03T01:29:48.238Z,37.00
2017-08-03T01:32:16.282Z,37.00
2017-08-03T01:34:44.436Z,37.00
2017-08-03T01:37:12.563Z,37.00
2017-08-03T01:39:40.667Z,37.00
2017-08-03T01:42:08.882Z,37.00
2017-08-03T01:44:36.926Z,37.00
2017-08-03T01:47:11.742Z,37.00
2017-08-03T01:49:39.786Z,36.90
2017-08-03T01:52:07.922Z,36.90
2017-08-03T01:54:36.124Z,36.90
2017-08-03T01:57:04.249Z,37.00
2017-08-03T01:59:32.273Z,37.00
2017-08-03T02:02:00.462Z,37.00
2017-08-03T02:04:28.503Z,37.10
2017-08-03T02:06:56.748Z,37.10
2017-08-03T02:09:24.976Z,37.10
2017-08-03T02:11:53.092Z,37.20
2017-08-03T02:14:21.169Z,37.20
2017-08-03T02:16:49.370Z,37.20
2017-08-03T02:19:17.390Z,37.20
2017-08-03T02:21:45.473Z,37.20
2017-08-03T02:24:13.744Z,37.20
2017-08-03T02:26:41.832Z,37.20
2017-08-03T02:29:09.862Z,37.20
2017-08-03T02:31:38.046Z,37.30
2017-08-03T02:34:06.092Z,37.30
2017-08-03T02:36:34.195Z,37.30
2017-08-03T02:39:02.437Z,37.30
2017-08-03T02:41:30.508Z,37.40
2017-08-03T02:43:58.654Z,37.40
2017-08-03T02:46:26.821Z,37.50
2017-08-03T02:48:54.862Z,37.50
2017-08-03T02:51:22.909Z,37.50
2017-08-03T02:53:51.118Z,37.60
2017-08-03T02:56:19.210Z,37.60
2017-08-03T02:58:47.273Z,37.70
2017-08-03T03:01:15.454Z,37.70
2017-08-03T03:03:43.572Z,37.80
2017-08-03T03:06:11.636Z,37.90
2017-08-03T03:08:39.856Z,37.90
2017-08-03T03:11:08.093Z,38.00
2017-08-03T03:13:36.211Z,38.10
2017-08-03T03:16:04.581Z,38.30
2017-08-03T03:18:32.635Z,38.30
2017-08-03T03:21:01.012Z,38.40
2017-08-03T03:23:29.261Z,38.40
2017-08-03T03:25:57.471Z,38.50
2017-08-03T03:28:25.502Z,38.50
2017-08-03T03:30:53.674Z,38.60
2017-08-03T03:33:21.726Z,38.60
2017-08-03T03:35:49.776Z,38.70
2017-08-03T03:38:18.024Z,38.70
2017-08-03T03:40:46.082Z,38.70
2017-08-03T03:43:14.177Z,38.90
2017-08-03T03:45:42.345Z,39.10
2017-08-03T03:48:10.452Z,39.20
2017-08-03T03:50:38.488Z,39.20
2017-08-03T03:53:06.737Z,39.30
2017-08-03T03:55:34.852Z,39.40
2017-08-03T03:58:02.909Z,39.50
2017-08-03T04:00:31.018Z,39.60
2017-08-03T04:02:59.078Z,39.50
2017-08-03T04:05:27.146Z,39.30
2017-08-03T04:07:55.388Z,39.30
2017-08-03T04:10:23.450Z,39.80
2017-08-03T04:12:51.506Z,40.10
2017-08-03T04:15:19.706Z,40.40
2017-08-03T04:17:47.783Z,40.70
2017-08-03T04:20:15.866Z,40.90
2017-08-03T04:22:44.088Z,41.20
2017-08-03T04:25:12.109Z,41.50
2017-08-03T04:27:40.245Z,41.60
2017-08-03T04:30:08.469Z,41.80
2017-08-03T04:32:36.528Z,42.00
2017-08-03T04:35:04.567Z,42.30
2017-08-03T04:37:32.732Z,42.60
2017-08-03T04:40:00.815Z,42.60
2017-08-03T04:42:28.817Z,43.10
2017-08-03T04:44:56.956Z,43.80
2017-08-03T04:47:25.057Z,44.30
2017-08-03T04:49:53.051Z,45.40
2017-08-03T04:52:21.215Z,46.30
2017-08-03T04:54:49.293Z,47.10
2017-08-03T04:57:17.364Z,47.60
2017-08-03T04:59:45.708Z,46.60
2017-08-03T05:02:13.782Z,47.10
2017-08-03T05:04:41.827Z,45.90
2017-08-03T05:07:09.954Z,45.60
2017-08-03T05:09:38.040Z,45.20
2017-08-03T05:12:06.087Z,46.10
2017-08-03T05:14:34.270Z,46.50
2017-08-03T05:17:02.290Z,46.90
2017-08-03T05:19:30.323Z,47.50
2017-08-03T05:21:58.474Z,48.90
2017-08-03T05:24:26.578Z,49.70
2017-08-03T05:26:54.664Z,48.90
2017-08-03T05:29:22.991Z,48.80
2017-08-03T05:31:51.059Z,48.10
2017-08-03T05:34:19.140Z,47.50
2017-08-03T05:36:47.372Z,47.70
2017-08-03T05:39:15.401Z,47.20
2017-08-03T05:41:43.485Z,47.10
2017-08-03T05:44:11.685Z,47.50
2017-08-03T05:46:39.741Z,47.10
2017-08-03T05:49:07.782Z,47.10
2017-08-03T05:51:35.933Z,47.70
2017-08-03T05:54:04.011Z,49.00
2017-08-03T05:56:32.105Z,49.50
2017-08-03T05:59:00.276Z,50.10
2017-08-03T06:01:28.400Z,50.80
2017-08-03T06:03:56.498Z,51.20
2017-08-03T06:06:24.780Z,52.00
2017-08-03T06:08:52.892Z,51.80
2017-08-03T06:11:21.006Z,51.60
2017-08-03T06:13:49.161Z,51.30
2017-08-03T06:16:17.246Z,51.00
2017-08-03T06:18:45.290Z,51.00
2017-08-03T06:21:13.475Z,49.90
2017-08-03T06:23:41.510Z,49.90
2017-08-03T06:26:09.514Z,49.80
2017-08-03T06:28:37.672Z,49.10
2017-08-03T06:31:05.843Z,48.90
2017-08-03T06:33:33.964Z,48.20
2017-08-03T06:36:02.188Z,48.10
2017-08-03T06:38:30.235Z,48.40
2017-08-03T06:40:58.400Z,48.70
2017-08-03T06:43:26.607Z,48.20
2017-08-03T06:45:54.825Z,49.30
2017-08-03T06:48:22.866Z,50.40
2017-08-03T06:50:51.051Z,51.60
2017-08-03T06:53:19.116Z,52.10
2017-08-03T06:55:47.219Z,52.70
2017-08-03T06:58:15.445Z,52.30
2017-08-03T07:00:43.482Z,52.00
2017-08-03T07:03:11.486Z,52.20
2017-08-03T07:05:39.633Z,52.00
2017-08-03T07:08:07.694Z,51.30
2017-08-03T07:10:35.725Z,50.90
2017-08-03T07:13:03.946Z,50.50
2017-08-03T07:15:31.994Z,50.00
2017-08-03T07:18:00.066Z,49.40
2017-08-03T07:20:28.255Z,49.20
2017-08-03T07:22:56.361Z,49.10
2017-08-03T07:25:24.480Z,49.10
2017-08-03T07:27:52.656Z,48.70
2017-08-03T07:30:20.730Z,48.60
2017-08-03T07:32:48.892Z,48.80
2017-08-03T07:35:17.122Z,49.10
2017-08-03T07:37:45.182Z,48.70
2017-08-03T07:40:13.366Z,48.70
2017-08-03T07:42:41.518Z,47.90
2017-08-03T07:45:09.589Z,47.60
2017-08-03T07:47:37.632Z,47.40
2017-08-03T07:50:05.834Z,47.20
2017-08-03T07:52:33.910Z,46.90
2017-08-03T07:55:01.955Z,46.70
2017-08-03T07:57:30.109Z,46.50
2017-08-03T07:59:58.204Z,46.30
2017-08-03T08:02:26.306Z,46.40
2017-08-03T08:04:54.519Z,46.50
2017-08-03T08:07:22.575Z,46.10
2017-08-03T08:09:50.621Z,45.80
2017-08-03T08:12:18.829Z,45.70
2017-08-03T08:14:46.909Z,45.50
2017-08-03T08:17:14.953Z,45.30
2017-08-03T08:19:43.187Z,45.40
2017-08-03T08:22:11.238Z,45.40
2017-08-03T08:24:39.303Z,45.40
2017-08-03T08:27:07.528Z,45.40
2017-08-03T08:29:35.564Z,45.30
2017-08-03T08:32:03.607Z,44.90
2017-08-03T08:34:31.979Z,44.90
2017-08-03T08:37:00.021Z,44.90
2017-08-03T08:39:28.152Z,45.00
2017-08-03T08:41:56.315Z,45.00
2017-08-03T08:44:24.395Z,45.00
2017-08-03T08:46:52.467Z,45.00
2017-08-03T08:49:20.603Z,45.10
2017-08-03T08:51:48.665Z,45.00
2017-08-03T08:54:16.694Z,45.00
2017-08-03T08:56:44.860Z,45.00
2017-08-03T08:59:12.894Z,45.00
2017-08-03T09:01:40.926Z,45.10
2017-08-03T09:04:09.090Z,45.30
2017-08-03T09:06:37.140Z,45.40
2017-08-03T09:09:05.409Z,45.40
2017-08-03T09:11:33.584Z,45.20
2017-08-03T09:14:01.656Z,45.40
2017-08-03T09:16:29.717Z,45.20
2017-08-03T09:18:57.896Z,45.20
2017-08-03T09:21:26.002Z,45.30
2017-08-03T09:23:54.064Z,45.30
2017-08-03T09:26:22.272Z,45.40
2017-08-03T09:28:50.334Z,45.50
2017-08-03T09:31:18.420Z,45.50
2017-08-03T09:33:46.599Z,45.60
2017-08-03T09:36:14.836Z,45.60
2017-08-03T09:38:43.147Z,45.60
2017-08-03T09:41:11.322Z,45.50
2017-08-03T09:43:39.692Z,45.50
2017-08-03T09:46:07.787Z,45.30
2017-08-03T09:48:35.962Z,45.30
2017-08-03T09:51:04.133Z,45.20
2017-08-03T09:53:32.191Z,45.20
2017-08-03T09:56:00.369Z,45.10
2017-08-03T09:58:28.434Z,45.20
2017-08-03T10:00:56.608Z,45.20
2017-08-03T10:03:24.783Z,45.20
2017-08-03T10:05:52.841Z,45.10
2017-08-03T10:08:20.886Z,45.00
2017-08-03T10:10:49.126Z,45.00
2017-08-03T10:13:17.182Z,45.00
2017-08-03T10:15:45.269Z,45.00
2017-08-03T10:18:13.439Z,45.00
2017-08-03T10:20:41.464Z,45.00
2017-08-03T10:23:09.568Z,45.10
2017-08-03T10:25:37.749Z,45.00
2017-08-03T10:28:05.846Z,45.10
2017-08-03T10:30:33.915Z,45.00
2017-08-03T10:33:02.065Z,45.00
2017-08-03T10:35:30.140Z,45.20
2017-08-03T10:37:58.292Z,45.20
2017-08-03T10:40:26.503Z,45.20
2017-08-03T10:42:54.562Z,45.10
2017-08-03T10:45:22.644Z,45.00
2017-08-03T10:47:50.834Z,45.00
2017-08-03T10:50:18.880Z,44.90
2017-08-03T10:52:46.918Z,44.80
2017-08-03T10:55:15.108Z,44.90
2017-08-03T10:57:43.186Z,44.90
2017-08-03T11:00:11.221Z,45.00
2017-08-03T11:02:39.422Z,44.90
2017-08-03T11:05:07.486Z,44.90
2017-08-03T11:07:35.556Z,44.90
2017-08-03T11:10:03.785Z,44.90
2017-08-03T11:12:31.856Z,44.70
2017-08-03T11:14:59.880Z,44.70
2017-08-03T11:17:28.044Z,44.70
2017-08-03T11:19:56.114Z,44.50
2017-08-03T11:22:24.185Z,44.40
2017-08-03T11:24:52.541Z,44.40
2017-08-03T11:27:20.610Z,44.40
2017-08-03T11:29:48.789Z,44.40
2017-08-03T11:32:17.009Z,44.30
2017-08-03T11:34:45.159Z,44.10
2017-08-03T11:37:13.194Z,44.10
2017-08-03T11:39:41.473Z,44.00
2017-08-03T11:42:09.565Z,44.00
2017-08-03T11:44:37.617Z,44.00
2017-08-03T11:47:05.836Z,43.90
2017-08-03T11:49:33.948Z,43.90
2017-08-03T11:52:02.022Z,44.00
2017-08-03T11:54:30.340Z,44.00
2017-08-03T11:56:58.452Z,43.90
2017-08-03T11:59:26.563Z,43.90
2017-08-03T12:01:54.754Z,43.80
2017-08-03T12:04:22.821Z,43.70
2017-08-03T12:06:50.883Z,43.70
2017-08-03T12:09:19.079Z,43.70
2017-08-03T12:11:47.134Z,43.60
2017-08-03T12:27:01.128Z,43.60
2017-08-03T12:29:29.804Z,43.40
2017-08-03T12:31:57.893Z,43.40
2017-08-03T12:34:26.080Z,43.30
2017-08-03T12:36:54.098Z,43.20
2017-08-03T12:39:22.184Z,43.10
2017-08-03T12:41:50.488Z,43.10
2017-08-03T12:44:18.600Z,43.20
2017-08-03T12:46:46.708Z,43.10
2017-08-03T12:49:14.893Z,43.00
2017-08-03T12:51:43.019Z,43.00
2017-08-03T12:54:11.096Z,43.00
2017-08-03T12:56:39.296Z,43.00
2017-08-03T12:59:07.526Z,43.00
2017-08-03T13:01:35.557Z,43.00
2017-08-03T13:04:03.719Z,42.90
2017-08-03T13:06:31.787Z,42.80
2017-08-03T13:08:59.853Z,42.80
2017-08-03T13:11:28.043Z,42.80
2017-08-03T13:13:56.152Z,42.70
2017-08-03T13:16:24.193Z,42.70
2017-08-03T13:18:52.371Z,42.60
2017-08-03T13:21:20.405Z,42.60
2017-08-03T13:23:48.476Z,42.50
2017-08-03T13:26:16.591Z,42.50
2017-08-03T13:28:44.638Z,42.50
2017-08-03T13:31:12.684Z,42.40
2017-08-03T13:33:40.918Z,42.30
2017-08-03T13:36:09.002Z,42.20
2017-08-03T13:38:37.046Z,42.20
2017-08-03T13:41:05.240Z,42.20
2017-08-03T13:43:33.412Z,42.20
2017-08-03T13:46:01.481Z,42.10
2017-08-03T13:48:29.709Z,42.10
2017-08-03T13:50:57.857Z,42.10
2017-08-03T13:53:25.934Z,42.00
2017-08-03T13:55:54.163Z,42.00
2017-08-03T13:58:22.230Z,42.00
2017-08-03T14:00:50.300Z,42.00
2017-08-03T14:03:18.430Z,42.00
2017-08-03T14:05:46.544Z,42.00
2017-08-03T14:08:14.629Z,41.90
2017-08-03T14:10:42.826Z,41.90
2017-08-03T14:13:10.818Z,41.90
2017-08-03T14:15:38.864Z,41.90
2017-08-03T14:18:07.064Z,42.00
2017-08-03T14:20:35.169Z,41.90
2017-08-03T14:23:03.206Z,42.00
2017-08-03T14:25:31.366Z,42.00
2017-08-03T14:27:59.473Z,42.00
2017-08-03T14:30:27.516Z,42.00
2017-08-03T14:32:55.832Z,42.00
2017-08-03T14:35:23.926Z,41.90
2017-08-03T14:37:51.988Z,41.90
2017-08-03T14:40:20.171Z,41.90
2017-08-03T14:42:48.250Z,41.90
2017-08-03T14:45:16.410Z,41.80
2017-08-03T14:47:44.581Z,41.80
2017-08-03T14:50:12.676Z,41.90
2017-08-03T14:52:40.842Z,41.90
2017-08-03T14:55:09.056Z,42.00
2017-08-03T14:57:37.145Z,42.00
2017-08-03T15:00:05.268Z,42.00
2017-08-03T15:02:33.464Z,42.00
2017-08-03T15:05:01.523Z,41.90
2017-08-03T15:07:29.563Z,41.90
2017-08-03T15:09:57.758Z,41.90
2017-08-03T15:12:25.794Z,41.80
2017-08-03T15:14:53.865Z,41.80
2017-08-03T15:17:22.106Z,41.80
2017-08-03T15:19:50.117Z,41.80
2017-08-03T15:22:18.148Z,41.80
2017-08-03T15:24:46.330Z,41.80
2017-08-03T15:27:14.396Z,41.70
2017-08-03T15:29:42.484Z,41.70
2017-08-03T15:32:10.666Z,41.60
2017-08-03T15:34:38.712Z,41.60
2017-08-03T15:37:06.804Z,41.50
2017-08-03T15:39:34.977Z,41.50
2017-08-03T15:42:03.218Z,41.50
2017-08-03T15:44:31.260Z,41.50
2017-08-03T15:46:59.623Z,41.50
2017-08-03T15:49:27.690Z,41.50
2017-08-03T15:51:55.761Z,41.50
2017-08-03T15:54:23.946Z,41.40
2017-08-03T15:56:52.104Z,41.30
2017-08-03T15:59:20.156Z,41.40
2017-08-03T16:01:48.346Z,41.30
2017-08-03T16:04:16.425Z,41.30
2017-08-03T16:06:44.482Z,41.20
2017-08-03T16:09:12.700Z,41.20
2017-08-03T16:11:40.724Z,41.20
2017-08-03T16:14:08.794Z,41.20
2017-08-03T16:16:36.990Z,41.20
2017-08-03T16:19:05.034Z,41.10
2017-08-03T16:21:33.127Z,41.10
2017-08-03T16:24:01.337Z,41.10
2017-08-03T16:26:29.426Z,41.10
2017-08-03T16:28:57.522Z,41.20
2017-08-03T16:31:25.705Z,41.10
2017-08-03T16:33:53.792Z,41.10
2017-08-03T16:36:21.852Z,41.10
2017-08-03T16:38:50.070Z,41.10
2017-08-03T16:41:18.164Z,41.00
2017-08-03T16:43:46.274Z,41.10
2017-08-03T16:46:14.468Z,41.00
2017-08-03T16:48:42.661Z,41.00
2017-08-03T16:51:10.753Z,41.00
2017-08-03T16:53:39.464Z,41.00
2017-08-03T16:56:08.233Z,41.00
2017-08-03T16:58:37.200Z,40.90
2017-08-03T17:01:05.575Z,40.90
2017-08-03T17:03:33.830Z,40.90
2017-08-03T17:06:02.530Z,40.90
2017-08-03T17:08:30.741Z,40.90
2017-08-03T17:10:59.172Z,40.80
2017-08-03T17:13:27.813Z,40.90
2017-08-03T17:15:56.445Z,40.80
2017-08-03T17:18:25.425Z,40.80
2017-08-03T17:20:54.392Z,40.80
2017-08-03T17:23:22.762Z,40.80
2017-08-03T17:25:51.625Z,40.70
2017-08-03T17:28:20.235Z,40.70
2017-08-03T17:30:48.624Z,40.60
2017-08-03T17:33:17.432Z,40.60
2017-08-03T17:35:46.789Z,40.60
2017-08-03T17:38:15.445Z,40.50
2017-08-03T17:40:43.743Z,40.50
2017-08-03T17:43:12.237Z,40.50
2017-08-03T17:45:40.853Z,40.50
2017-08-03T17:48:09.060Z,40.50
2017-08-03T17:50:37.918Z,40.50
2017-08-03T17:53:06.072Z,40.50
2017-08-03T17:55:34.808Z,40.50
2017-08-03T17:58:04.512Z,40.40
2017-08-03T18:00:33.049Z,40.40
2017-08-03T18:03:01.836Z,40.30
2017-08-03T18:05:31.158Z,40.30
2017-08-03T18:07:59.341Z,40.30
2017-08-03T18:10:27.763Z,40.30
2017-08-03T18:12:55.978Z,40.30
2017-08-03T18:15:24.192Z,40.20
2017-08-03T18:17:52.958Z,40.20
2017-08-03T18:20:22.697Z,40.10
2017-08-03T18:22:51.698Z,40.10
2017-08-03T18:25:20.357Z,40.00
2017-08-03T18:27:49.153Z,40.00
2017-08-03T18:30:17.714Z,39.90
2017-08-03T18:32:46.079Z,39.90
2017-08-03T18:35:14.898Z,39.90
2017-08-03T18:37:44.716Z,39.80
2017-08-03T18:40:14.433Z,39.80
2017-08-03T18:42:43.001Z,39.80
2017-08-03T18:45:11.240Z,39.80
2017-08-03T18:47:39.474Z,39.70
2017-08-03T18:50:07.711Z,39.70
2017-08-03T18:52:36.226Z,39.60
2017-08-03T18:55:04.523Z,39.60
2017-08-03T18:57:33.232Z,39.60
2017-08-03T19:00:01.920Z,39.60
2017-08-03T19:02:29.996Z,39.60
2017-08-03T19:04:58.219Z,39.50
2017-08-03T19:07:26.992Z,39.40
2017-08-03T19:09:56.557Z,39.40
2017-08-03T19:12:24.838Z,39.40
2017-08-03T19:14:53.205Z,39.40
2017-08-03T19:17:21.446Z,39.40
2017-08-03T19:19:50.084Z,39.30
2017-08-03T19:22:18.726Z,39.30
2017-08-03T19:24:48.428Z,39.30
2017-08-03T19:27:16.953Z,39.30
2017-08-03T19:29:45.288Z,39.20
2017-08-03T19:32:13.882Z,39.30
2017-08-03T19:34:42.464Z,39.30
2017-08-03T19:37:11.100Z,39.30
2017-08-03T19:39:39.708Z,39.30
2017-08-03T19:42:07.937Z,39.20
2017-08-03T19:44:36.520Z,39.10
2017-08-03T19:47:05.386Z,39.10
2017-08-03T19:49:35.226Z,39.10
2017-08-03T19:52:03.551Z,39.10
2017-08-03T19:54:32.173Z,39.10
2017-08-03T19:57:00.649Z,39.00
2017-08-03T19:59:30.082Z,39.00
2017-08-03T20:01:58.854Z,39.00
2017-08-03T20:04:27.522Z,39.00
2017-08-03T20:07:07.516Z,38.90
2017-08-03T20:09:39.045Z,38.90
2017-08-03T20:12:08.177Z,38.90
2017-08-03T20:14:36.818Z,38.90
2017-08-03T20:17:04.944Z,38.90
2017-08-03T20:19:33.420Z,38.90
2017-08-03T20:22:02.467Z,38.80
2017-08-03T20:24:31.049Z,38.80
2017-08-03T20:26:59.746Z,38.90
2017-08-03T20:29:29.145Z,38.80
2017-08-03T20:31:57.558Z,38.80
2017-08-03T20:34:25.761Z,38.80
2017-08-03T20:36:53.991Z,38.80
2017-08-03T20:39:22.248Z,38.70
2017-08-03T20:41:51.200Z,38.70
2017-08-03T20:44:19.812Z,38.60
2017-08-03T20:46:48.010Z,38.50
2017-08-03T20:49:16.904Z,38.60
2017-08-03T20:51:44.961Z,38.60
2017-08-03T20:54:13.250Z,38.50
2017-08-03T20:56:42.127Z,38.50
2017-08-03T20:59:10.786Z,38.50
2017-08-03T21:01:41.484Z,38.50
2017-08-03T21:04:09.899Z,38.50
2017-08-03T21:06:37.948Z,38.50
2017-08-03T21:09:06.028Z,38.40
2017-08-03T21:11:34.213Z,38.30
2017-08-03T21:14:02.224Z,38.30
2017-08-03T21:16:30.279Z,38.30
2017-08-03T21:18:58.449Z,38.30
2017-08-03T21:21:26.458Z,38.40
2017-08-03T21:23:54.581Z,38.30
2017-08-03T21:26:22.828Z,38.30
2017-08-03T21:28:50.911Z,38.30
2017-08-03T21:31:18.963Z,38.30
2017-08-03T21:33:47.114Z,38.30
2017-08-03T21:36:15.114Z,38.20
2017-08-03T21:38:43.109Z,38.20
2017-08-03T21:41:11.322Z,38.20
2017-08-03T21:43:39.366Z,38.20
2017-08-03T21:46:07.442Z,38.10
2017-08-03T21:48:35.724Z,38.10
2017-08-03T21:51:03.805Z,38.10
2017-08-03T21:53:31.862Z,38.10
2017-08-03T21:56:00.066Z,38.10
2017-08-03T21:58:28.247Z,38.10
2017-08-03T22:01:07.882Z,38.10
2017-08-03T22:03:35.940Z,38.10
2017-08-03T22:06:04.373Z,38.10
2017-08-03T22:08:32.546Z,38.00
2017-08-03T22:11:00.668Z,37.80
2017-08-03T22:13:28.748Z,37.80
2017-08-03T22:15:56.884Z,37.70
2017-08-03T22:18:25.035Z,37.80
2017-08-03T22:20:53.109Z,37.80
2017-08-03T22:23:21.306Z,37.80
2017-08-03T22:25:49.349Z,37.80
2017-08-03T22:28:17.435Z,37.90
2017-08-03T22:30:45.562Z,37.80
2017-08-03T22:33:13.649Z,37.80
2017-08-03T22:35:41.714Z,37.80
2017-08-03T22:38:09.914Z,37.80
2017-08-03T22:40:37.946Z,37.80
2017-08-03T22:43:06.000Z,37.80
2017-08-03T22:45:34.150Z,37.80
2017-08-03T22:48:02.196Z,37.80
2017-08-03T22:50:30.304Z,37.80
2017-08-03T22:52:58.480Z,37.80
2017-08-03T22:55:26.555Z,37.70
2017-08-03T22:57:54.618Z,37.70
2017-08-03T23:00:22.934Z,37.70
2017-08-03T23:02:51.056Z,37.70
2017-08-03T23:05:19.073Z,37.60
2017-08-03T23:07:47.264Z,37.70
2017-08-03T23:10:15.347Z,37.70
2017-08-03T23:12:43.388Z,37.70
2017-08-03T23:15:11.618Z,37.70
2017-08-03T23:17:39.690Z,37.60
2017-08-03T23:20:07.733Z,37.50
2017-08-03T23:22:35.882Z,37.40
2017-08-03T23:25:03.960Z,37.20
2017-08-03T23:27:31.991Z,37.20
2017-08-03T23:30:00.163Z,37.20
2017-08-03T23:32:28.265Z,37.20
2017-08-03T23:34:56.329Z,37.20
2017-08-03T23:37:24.536Z,37.20
2017-08-03T23:39:52.678Z,37.20
2017-08-03T23:42:20.733Z,37.10
2017-08-03T23:44:48.869Z,37.20
2017-08-03T23:47:16.908Z,37.20
2017-08-03T23:49:45.010Z,37.10
2017-08-03T23:52:13.236Z,37.10
2017-08-03T23:54:41.243Z,37.10
2017-08-03T23:57:09.363Z,37.10
2017-08-03T23:59:37.539Z,37.10
